Jose de San Martin, Argentina
Current Conditions -  °F | °C
As of 8:00 PM on Tuesday 21 Oct 2014 (Local Time) from SCAP Reporting Station
Few Clouds Few Clouds  
Wind Chill: 55°   Ceiling: Unl
Heat Index: 55°   Visibility: NA
Dew Point: 46°   Wind: 6mph
Humidity: 72%   Direction: 200°SSW
Pressure: 30"   Gusts: NA
Location:  44.03°S, 70.48°W
Report Text: SCAP 212300Z AUTO 20005KT 130V280 //// // FEW049 13/08 Q1016
Loading
Personal Weather Stations






























Interactive Weather Map New forecast layout! Learn more

10-Day Weather Forecast

Advertisements
Track Severe Weather on mobile